Time;durP1;ratioP1;P1;durP2;ratioP2;P2;SDS_P1;SDS_P2;PMS_P1;PMS_P2;Temp;Humidity;BMP_temperature;BMP_pressure;BME280_temperature;BME280_humidity;BME280_pressure;Samples;Min_cycle;Max_cycle;Signal;HPM_P1;HPM_P2
2023/11/28 00:01:19;;;;;;;1.58;1.27;;;;;;;;;;4999988;28;20042;-81
2023/11/28 00:03:46;;;;;;;1.20;1.00;;;;;;;;;;4980403;28;20043;-81
2023/11/28 00:06:17;;;;;;;2.55;1.20;;;;;;;;;;4978428;28;20057;-81
2023/11/28 00:08:45;;;;;;;2.05;1.20;;;;;;;;;;4997099;28;20042;-81
2023/11/28 00:11:17;;;;;;;1.52;0.90;;;;;;;;;;4988253;28;20038;-81
2023/11/28 00:13:46;;;;;;;1.98;1.48;;;;;;;;;;4993953;28;20051;-81
2023/11/28 00:16:13;;;;;;;1.48;1.10;;;;;;;;;;4964768;28;20050;-81
2023/11/28 00:18:40;;;;;;;1.33;1.23;;;;;;;;;;4964282;28;20058;-81
2023/11/28 00:21:08;;;;;;;1.85;1.60;;;;;;;;;;4959617;28;20050;-81
2023/11/28 00:23:35;;;;;;;1.52;1.42;;;;;;;;;;4978470;28;20062;-81
2023/11/28 00:26:02;;;;;;;1.40;1.30;;;;;;;;;;4986467;28;20050;-81
2023/11/28 00:28:29;;;;;;;1.75;1.23;;;;;;;;;;4982402;28;20050;-81
2023/11/28 00:31:00;;;;;;;1.60;1.50;;;;;;;;;;4995727;28;20062;-81
2023/11/28 00:33:27;;;;;;;1.42;1.20;;;;;;;;;;4975413;28;20061;-81
2023/11/28 00:35:55;;;;;;;1.40;1.30;;;;;;;;;;4977719;28;20061;-81
2023/11/28 00:38:24;;;;;;;2.10;1.58;;;;;;;;;;4983196;28;20046;-81
2023/11/28 00:40:52;;;;;;;1.70;1.35;;;;;;;;;;4974888;28;20046;-81
2023/11/28 00:43:22;;;;;;;1.70;1.38;;;;;;;;;;4982159;28;20046;-81
2023/11/28 00:45:49;;;;;;;2.22;1.35;;;;;;;;;;4977459;28;20046;-81
2023/11/28 00:48:19;;;;;;;2.28;1.70;;;;;;;;;;4961084;28;20057;-81
2023/11/28 00:50:46;;;;;;;2.00;1.80;;;;;;;;;;4978789;28;20062;-81
2023/11/28 00:53:16;;;;;;;1.80;1.50;;;;;;;;;;4995247;28;20038;-81
2023/11/28 00:55:44;;;;;;;3.30;1.75;;;;;;;;;;4959393;28;20050;-81
2023/11/28 00:58:11;;;;;;;1.58;1.38;;;;;;;;;;4995660;28;20053;-81
2023/11/28 01:00:41;;;;;;;2.00;1.50;;;;;;;;;;4962300;28;20058;-81
2023/11/28 01:03:11;;;;;;;1.90;1.30;;;;;;;;;;4960440;28;20047;-81
2023/11/28 01:05:39;;;;;;;1.58;1.30;;;;;;;;;;4978989;28;20066;-81
2023/11/28 01:08:11;;;;;;;2.47;1.70;;;;;;;;;;4965352;28;20050;-81
2023/11/28 01:10:41;;;;;;;1.73;1.63;;;;;;;;;;4975877;28;20413;-81
2023/11/28 01:13:08;;;;;;;2.13;1.65;;;;;;;;;;4981773;28;20051;-81
2023/11/28 01:15:35;;;;;;;1.80;1.52;;;;;;;;;;4988505;28;20049;-81
2023/11/28 01:18:02;;;;;;;1.98;1.50;;;;;;;;;;4980809;28;20049;-81
2023/11/28 01:20:30;;;;;;;1.77;1.40;;;;;;;;;;4965375;28;20061;-81
2023/11/28 01:22:58;;;;;;;2.00;1.42;;;;;;;;;;4981291;28;20097;-81
2023/11/28 01:25:28;;;;;;;2.65;1.88;;;;;;;;;;4978017;28;20054;-81
2023/11/28 01:27:56;;;;;;;2.78;2.58;;;;;;;;;;4963887;28;20058;-81
2023/11/28 01:30:23;;;;;;;2.00;1.80;;;;;;;;;;4954753;28;20069;-81
2023/11/28 01:32:52;;;;;;;4.38;1.88;;;;;;;;;;4980880;28;20035;-81
2023/11/28 01:35:21;;;;;;;3.40;2.33;;;;;;;;;;4964484;28;20057;-81
2023/11/28 01:37:48;;;;;;;1.92;1.70;;;;;;;;;;4971201;28;20047;-81
2023/11/28 01:40:17;;;;;;;1.98;1.73;;;;;;;;;;4964481;28;20051;-82
2023/11/28 01:42:46;;;;;;;3.13;1.48;;;;;;;;;;4964143;28;20054;-81
2023/11/28 01:45:16;;;;;;;1.42;1.33;;;;;;;;;;4974736;28;20057;-81
2023/11/28 01:47:43;;;;;;;3.05;1.63;;;;;;;;;;4958252;28;20051;-81
2023/11/28 01:50:10;;;;;;;2.25;1.58;;;;;;;;;;4976226;28;20042;-81
2023/11/28 01:52:38;;;;;;;3.10;1.70;;;;;;;;;;4971710;28;20034;-81
2023/11/28 01:55:06;;;;;;;1.58;1.40;;;;;;;;;;4975637;28;20053;-81
2023/11/28 01:57:34;;;;;;;3.80;1.30;;;;;;;;;;4973648;28;20058;-81
2023/11/28 02:00:03;;;;;;;1.45;1.35;;;;;;;;;;4976072;28;20057;-81
2023/11/28 02:02:41;;;;;;;2.15;1.45;;;;;;;;;;4982051;28;20042;-81
2023/11/28 02:05:09;;;;;;;1.55;1.02;;;;;;;;;;4959860;28;20050;-81
2023/11/28 02:07:36;;;;;;;1.40;1.27;;;;;;;;;;4975515;28;20054;-81
2023/11/28 02:10:07;;;;;;;1.52;1.25;;;;;;;;;;4981417;28;20046;-81
2023/11/28 02:12:35;;;;;;;2.00;1.40;;;;;;;;;;4965965;28;20061;-81
2023/11/28 02:15:03;;;;;;;1.40;1.30;;;;;;;;;;4994811;28;20506;-81
2023/11/28 02:17:31;;;;;;;1.35;1.02;;;;;;;;;;4984887;28;20058;-81
2023/11/28 02:19:58;;;;;;;1.58;1.17;;;;;;;;;;4968495;28;20058;-81
2023/11/28 02:22:26;;;;;;;0.95;0.90;;;;;;;;;;4998049;28;20054;-81
2023/11/28 02:24:58;;;;;;;0.70;0.70;;;;;;;;;;4972011;28;20042;-81
2023/11/28 02:27:27;;;;;;;1.25;0.93;;;;;;;;;;4972168;28;20061;-81
2023/11/28 02:29:56;;;;;;;2.30;1.35;;;;;;;;;;4970290;28;20049;-81
2023/11/28 02:32:23;;;;;;;1.20;1.05;;;;;;;;;;4982852;28;20517;-81
2023/11/28 02:34:51;;;;;;;2.20;1.23;;;;;;;;;;4955366;28;20038;-81
2023/11/28 02:37:18;;;;;;;1.15;1.05;;;;;;;;;;4979337;28;20038;-81
2023/11/28 02:39:45;;;;;;;1.20;1.10;;;;;;;;;;5000978;28;20050;-81
2023/11/28 02:42:14;;;;;;;1.45;1.20;;;;;;;;;;4993992;28;20049;-81
2023/11/28 02:44:44;;;;;;;1.25;1.00;;;;;;;;;;4982800;28;20046;-81
2023/11/28 02:47:11;;;;;;;1.38;0.77;;;;;;;;;;4960866;28;20057;-81
2023/11/28 02:49:39;;;;;;;1.30;1.10;;;;;;;;;;4975318;28;20054;-81
2023/11/28 02:52:08;;;;;;;1.23;1.00;;;;;;;;;;4976223;28;20499;-81
2023/11/28 02:54:39;;;;;;;1.20;1.00;;;;;;;;;;4963635;28;20065;-81
2023/11/28 02:57:06;;;;;;;1.30;1.17;;;;;;;;;;4960216;28;20066;-81
2023/11/28 02:59:35;;;;;;;2.55;1.05;;;;;;;;;;4987886;28;20077;-81
2023/11/28 03:02:06;;;;;;;1.80;1.30;;;;;;;;;;4960039;28;20057;-81
2023/11/28 03:04:33;;;;;;;1.60;1.17;;;;;;;;;;4977374;28;20055;-81
2023/11/28 03:07:01;;;;;;;1.45;1.35;;;;;;;;;;4967032;28;20042;-81
2023/11/28 03:09:31;;;;;;;1.05;0.88;;;;;;;;;;4966018;28;20061;-81
2023/11/28 03:12:00;;;;;;;1.58;1.20;;;;;;;;;;4990512;28;20042;-81
2023/11/28 03:14:27;;;;;;;1.13;0.88;;;;;;;;;;4976789;28;20046;-81
2023/11/28 03:16:57;;;;;;;3.83;1.42;;;;;;;;;;4994289;28;20058;-81
2023/11/28 03:19:26;;;;;;;1.30;1.10;;;;;;;;;;4985201;28;20053;-81
2023/11/28 03:21:56;;;;;;;1.50;1.38;;;;;;;;;;4962483;28;20432;-81
2023/11/28 03:24:25;;;;;;;0.93;0.70;;;;;;;;;;4993488;28;20053;-81
2023/11/28 03:26:52;;;;;;;1.50;1.30;;;;;;;;;;4961436;28;20057;-81
2023/11/28 03:29:22;;;;;;;1.52;1.20;;;;;;;;;;4984934;28;20054;-81
2023/11/28 03:31:49;;;;;;;1.45;1.35;;;;;;;;;;4982991;28;20057;-81
2023/11/28 03:34:21;;;;;;;1.52;0.93;;;;;;;;;;4966563;28;20055;-81
2023/11/28 03:36:52;;;;;;;5.40;1.48;;;;;;;;;;4963600;28;20061;-81
2023/11/28 03:39:20;;;;;;;1.27;1.08;;;;;;;;;;4999501;28;20042;-81
2023/11/28 03:41:47;;;;;;;1.60;1.15;;;;;;;;;;4977051;28;20512;-81
2023/11/28 03:44:17;;;;;;;2.42;2.22;;;;;;;;;;4982814;28;20042;-81
2023/11/28 03:46:46;;;;;;;1.88;1.42;;;;;;;;;;4996392;28;20046;-81
2023/11/28 03:49:14;;;;;;;1.52;1.30;;;;;;;;;;4964366;28;20054;-81
2023/11/28 03:51:43;;;;;;;1.50;1.40;;;;;;;;;;4958460;28;20050;-81
2023/11/28 03:54:12;;;;;;;1.80;1.48;;;;;;;;;;4973966;28;20049;-81
2023/11/28 03:56:42;;;;;;;1.75;1.58;;;;;;;;;;4964561;28;20037;-81
2023/11/28 03:59:10;;;;;;;2.45;1.90;;;;;;;;;;4958663;28;20055;-81
2023/11/28 04:01:37;;;;;;;2.10;1.90;;;;;;;;;;4957063;28;20552;-81
2023/11/28 04:04:04;;;;;;;2.55;1.50;;;;;;;;;;4958859;28;20061;-81
2023/11/28 04:06:32;;;;;;;2.10;1.73;;;;;;;;;;4981095;28;20050;-81
2023/11/28 04:09:00;;;;;;;2.03;1.67;;;;;;;;;;4968423;28;20065;-81
2023/11/28 04:11:31;;;;;;;2.00;1.90;;;;;;;;;;4963007;28;20054;-81
2023/11/28 04:13:59;;;;;;;2.42;1.42;;;;;;;;;;4976335;28;20055;-81
2023/11/28 04:16:26;;;;;;;2.35;1.98;;;;;;;;;;4961990;28;20054;-81
2023/11/28 04:18:53;;;;;;;1.98;1.77;;;;;;;;;;4960933;28;20042;-81
2023/11/28 04:21:21;;;;;;;1.90;1.45;;;;;;;;;;4970102;28;20061;-81
2023/11/28 04:23:51;;;;;;;2.13;1.48;;;;;;;;;;4968197;28;20058;-81
2023/11/28 04:26:20;;;;;;;1.88;1.67;;;;;;;;;;4987145;28;20050;-81
2023/11/28 04:28:49;;;;;;;1.52;1.40;;;;;;;;;;4954451;28;20059;-79
2023/11/28 04:31:18;;;;;;;1.58;1.23;;;;;;;;;;4956049;28;20481;-79
2023/11/28 04:33:48;;;;;;;3.67;1.40;;;;;;;;;;4992117;28;20054;-79
2023/11/28 04:36:17;;;;;;;2.60;2.10;;;;;;;;;;4975815;28;20057;-79
2023/11/28 04:38:45;;;;;;;2.50;1.88;;;;;;;;;;4990302;28;20050;-79
2023/11/28 04:41:14;;;;;;;1.35;1.25;;;;;;;;;;4960659;28;20066;-79
2023/11/28 04:43:44;;;;;;;1.42;1.23;;;;;;;;;;4958397;28;20057;-79
2023/11/28 04:46:15;;;;;;;1.50;1.30;;;;;;;;;;4991750;28;20046;-79
2023/11/28 04:48:45;;;;;;;1.52;1.20;;;;;;;;;;4959717;28;20057;-79
2023/11/28 04:51:12;;;;;;;2.20;1.77;;;;;;;;;;4954799;28;20051;-79
2023/11/28 04:53:40;;;;;;;2.72;1.70;;;;;;;;;;4956587;28;20054;-79
2023/11/28 04:56:09;;;;;;;2.03;1.83;;;;;;;;;;4956736;28;20034;-79
2023/11/28 04:58:36;;;;;;;2.13;1.88;;;;;;;;;;4974925;28;20058;-79
2023/11/28 05:01:04;;;;;;;1.38;1.27;;;;;;;;;;4968893;28;20061;-79
2023/11/28 05:03:32;;;;;;;3.00;1.10;;;;;;;;;;4974346;28;20069;-79
2023/11/28 05:06:02;;;;;;;1.10;0.90;;;;;;;;;;4973315;28;20038;-79
2023/11/28 05:08:29;;;;;;;1.10;0.88;;;;;;;;;;4971781;28;20051;-79
2023/11/28 05:11:04;;;;;;;1.05;0.80;;;;;;;;;;4959630;28;20062;-79
2023/11/28 05:13:37;;;;;;;0.85;0.85;;;;;;;;;;4985681;28;20050;-79
2023/11/28 05:16:07;;;;;;;0.77;0.70;;;;;;;;;;4955175;28;20042;-79
2023/11/28 05:18:38;;;;;;;0.80;0.75;;;;;;;;;;4953664;28;20062;-79
2023/11/28 05:21:06;;;;;;;0.75;0.75;;;;;;;;;;4975839;28;20058;-80
2023/11/28 05:23:34;;;;;;;0.52;0.40;;;;;;;;;;4955725;28;20050;-80
2023/11/28 05:26:01;;;;;;;0.85;0.60;;;;;;;;;;4961285;28;20050;-80
2023/11/28 05:28:28;;;;;;;0.80;0.80;;;;;;;;;;4990968;28;20047;-81
2023/11/28 05:30:55;;;;;;;1.20;0.73;;;;;;;;;;4980237;28;20057;-81
2023/11/28 05:33:23;;;;;;;1.63;1.10;;;;;;;;;;4965043;28;20058;-81
2023/11/28 05:35:51;;;;;;;0.70;0.60;;;;;;;;;;4971358;28;20055;-81
2023/11/28 05:38:18;;;;;;;0.60;0.60;;;;;;;;;;4968717;28;20053;-81
2023/11/28 05:40:46;;;;;;;1.48;0.95;;;;;;;;;;4980968;28;20055;-81
2023/11/28 05:43:15;;;;;;;1.83;1.30;;;;;;;;;;4978930;28;20497;-81
2023/11/28 05:45:46;;;;;;;1.90;1.00;;;;;;;;;;4972464;28;20398;-80
2023/11/28 05:48:15;;;;;;;1.17;1.02;;;;;;;;;;4967292;28;20054;-81
2023/11/28 05:50:45;;;;;;;1.27;1.15;;;;;;;;;;4976660;28;20053;-81
2023/11/28 05:53:18;;;;;;;1.85;0.77;;;;;;;;;;4959279;28;20053;-80
2023/11/28 05:55:48;;;;;;;0.50;0.50;;;;;;;;;;4981502;28;20061;-80
2023/11/28 05:58:16;;;;;;;0.75;0.70;;;;;;;;;;4982108;28;20050;-81
2023/11/28 06:00:43;;;;;;;0.60;0.60;;;;;;;;;;4977218;28;20034;-81
2023/11/28 06:03:10;;;;;;;1.02;0.95;;;;;;;;;;4990658;28;20520;-81
2023/11/28 06:05:40;;;;;;;0.77;0.77;;;;;;;;;;4977707;28;20054;-80
2023/11/28 06:08:08;;;;;;;0.60;0.60;;;;;;;;;;4978853;28;20076;-80
2023/11/28 06:10:37;;;;;;;1.10;0.95;;;;;;;;;;4960446;28;20050;-80
2023/11/28 06:13:06;;;;;;;0.60;0.50;;;;;;;;;;4963555;28;20058;-80
2023/11/28 06:15:33;;;;;;;0.73;0.52;;;;;;;;;;4976912;28;20488;-80
2023/11/28 06:18:01;;;;;;;0.40;0.40;;;;;;;;;;4962845;28;20051;-80
2023/11/28 06:20:29;;;;;;;0.63;0.63;;;;;;;;;;4964990;28;20046;-80
2023/11/28 06:22:56;;;;;;;1.10;0.63;;;;;;;;;;4977217;28;20046;-80
2023/11/28 06:25:23;;;;;;;1.17;0.70;;;;;;;;;;4973009;28;20050;-80
2023/11/28 06:27:54;;;;;;;0.95;0.68;;;;;;;;;;4989107;28;20046;-80
2023/11/28 06:30:22;;;;;;;0.75;0.75;;;;;;;;;;4972221;28;20062;-80
2023/11/28 06:32:49;;;;;;;1.58;0.50;;;;;;;;;;4988175;28;20500;-80
2023/11/28 06:35:16;;;;;;;1.38;0.90;;;;;;;;;;4939226;28;20409;-80
2023/11/28 06:37:46;;;;;;;0.65;0.50;;;;;;;;;;4957648;28;20050;-80
2023/11/28 06:40:15;;;;;;;1.33;0.93;;;;;;;;;;4959100;28;20046;-80
2023/11/28 06:42:45;;;;;;;0.80;0.77;;;;;;;;;;4959512;28;20058;-80
2023/11/28 06:45:14;;;;;;;1.38;1.23;;;;;;;;;;4981412;28;20046;-80
2023/11/28 06:47:41;;;;;;;1.17;0.82;;;;;;;;;;4953874;28;20054;-80
2023/11/28 06:50:10;;;;;;;0.82;0.77;;;;;;;;;;4957073;28;20130;-80
2023/11/28 06:52:38;;;;;;;2.10;1.00;;;;;;;;;;4959363;28;20051;-80
2023/11/28 06:55:07;;;;;;;0.90;0.77;;;;;;;;;;4990934;28;20449;-80
2023/11/28 06:57:35;;;;;;;0.77;0.60;;;;;;;;;;4993229;28;20050;-80
2023/11/28 07:00:03;;;;;;;1.65;1.30;;;;;;;;;;4983860;28;20062;-80
2023/11/28 07:02:35;;;;;;;1.70;1.50;;;;;;;;;;4996959;28;20416;-80
2023/11/28 07:05:02;;;;;;;0.75;0.70;;;;;;;;;;5000468;28;20042;-80
2023/11/28 07:07:30;;;;;;;1.10;0.90;;;;;;;;;;4976001;28;20054;-80
2023/11/28 07:09:57;;;;;;;0.80;0.80;;;;;;;;;;4979085;28;20046;-80
2023/11/28 07:12:24;;;;;;;1.35;1.25;;;;;;;;;;4967431;28;20046;-80
2023/11/28 07:14:52;;;;;;;1.25;1.05;;;;;;;;;;4976695;28;20038;-81
2023/11/28 07:17:21;;;;;;;3.47;1.13;;;;;;;;;;4974063;28;20066;-81
2023/11/28 07:19:52;;;;;;;0.80;0.77;;;;;;;;;;4968087;28;20058;-81
2023/11/28 07:22:22;;;;;;;0.98;0.90;;;;;;;;;;4963889;28;20054;-80
2023/11/28 07:24:49;;;;;;;0.93;0.73;;;;;;;;;;4979121;28;20055;-79
2023/11/28 07:27:16;;;;;;;0.88;0.70;;;;;;;;;;4970823;28;20049;-80
2023/11/28 07:29:46;;;;;;;1.90;1.00;;;;;;;;;;4966206;28;20061;-80
2023/11/28 07:32:15;;;;;;;0.85;0.80;;;;;;;;;;4973875;28;20051;-80
2023/11/28 07:34:42;;;;;;;0.93;0.82;;;;;;;;;;4995639;28;20694;-80
2023/11/28 07:37:11;;;;;;;1.10;1.00;;;;;;;;;;4973889;28;20062;-80
2023/11/28 07:39:41;;;;;;;1.45;0.85;;;;;;;;;;4998210;28;20049;-80
2023/11/28 07:42:08;;;;;;;1.08;0.90;;;;;;;;;;4978909;28;20046;-80
2023/11/28 07:44:38;;;;;;;1.10;1.00;;;;;;;;;;4961775;28;20069;-80
2023/11/28 07:47:05;;;;;;;1.08;0.68;;;;;;;;;;4981017;28;20042;-80
2023/11/28 07:49:37;;;;;;;0.60;0.50;;;;;;;;;;4989395;28;20572;-80
2023/11/28 07:52:07;;;;;;;0.95;0.77;;;;;;;;;;4991454;28;20046;-80
2023/11/28 07:54:38;;;;;;;0.80;0.70;;;;;;;;;;4982116;28;20504;-80
2023/11/28 07:57:08;;;;;;;0.98;0.77;;;;;;;;;;4972259;28;20051;-80
2023/11/28 07:59:36;;;;;;;0.70;0.70;;;;;;;;;;4998098;28;20496;-80
2023/11/28 08:02:06;;;;;;;0.50;0.40;;;;;;;;;;4979039;28;20065;-80
2023/11/28 08:04:33;;;;;;;0.57;0.40;;;;;;;;;;4973849;28;20046;-80
2023/11/28 08:07:03;;;;;;;0.60;0.60;;;;;;;;;;4980319;28;20057;-80
2023/11/28 08:09:31;;;;;;;0.57;0.55;;;;;;;;;;4963668;28;20057;-80
2023/11/28 08:11:59;;;;;;;1.08;0.75;;;;;;;;;;4986218;28;20042;-80
2023/11/28 08:14:27;;;;;;;0.60;0.60;;;;;;;;;;4996918;28;21189;-80
2023/11/28 08:16:54;;;;;;;0.85;0.57;;;;;;;;;;4978146;28;20042;-80
2023/11/28 08:19:23;;;;;;;0.60;0.57;;;;;;;;;;4975713;28;20054;-80
2023/11/28 08:21:51;;;;;;;0.57;0.57;;;;;;;;;;4977689;28;20355;-80
2023/11/28 08:24:18;;;;;;;2.70;0.82;;;;;;;;;;4961157;28;20057;-80
2023/11/28 08:26:46;;;;;;;0.85;0.60;;;;;;;;;;4992746;28;20058;-80
2023/11/28 08:29:17;;;;;;;0.50;0.50;;;;;;;;;;4978180;28;20050;-80
2023/11/28 08:31:44;;;;;;;0.50;0.50;;;;;;;;;;4979762;28;20053;-80
2023/11/28 08:34:11;;;;;;;0.60;0.60;;;;;;;;;;4967511;28;20057;-80
2023/11/28 08:36:38;;;;;;;0.60;0.60;;;;;;;;;;4982427;28;20043;-80
2023/11/28 08:39:07;;;;;;;0.90;0.88;;;;;;;;;;4962135;28;20046;-80
2023/11/28 08:41:39;;;;;;;0.90;0.60;;;;;;;;;;4987307;28;20047;-80
2023/11/28 08:44:07;;;;;;;0.77;0.77;;;;;;;;;;4991499;28;20042;-80
2023/11/28 08:46:39;;;;;;;0.93;0.73;;;;;;;;;;4991318;28;20053;-80
2023/11/28 08:49:11;;;;;;;0.70;0.57;;;;;;;;;;4990509;28;20062;-80
2023/11/28 08:51:41;;;;;;;1.83;0.80;;;;;;;;;;4964381;28;20715;-80
2023/11/28 08:54:10;;;;;;;0.80;0.80;;;;;;;;;;4972822;28;20062;-80
2023/11/28 08:56:38;;;;;;;0.68;0.60;;;;;;;;;;4972613;28;20053;-80
2023/11/28 08:59:07;;;;;;;1.10;0.90;;;;;;;;;;4980016;28;20046;-80
2023/11/28 09:01:35;;;;;;;1.42;1.15;;;;;;;;;;4964717;28;20046;-80
2023/11/28 09:04:09;;;;;;;0.95;0.88;;;;;;;;;;4974665;28;20058;-80
2023/11/28 09:06:36;;;;;;;1.23;1.13;;;;;;;;;;4966508;28;20045;-80
2023/11/28 09:09:04;;;;;;;0.90;0.80;;;;;;;;;;4994727;28;20049;-80
2023/11/28 09:11:36;;;;;;;1.08;0.82;;;;;;;;;;5010918;28;20039;-80
2023/11/28 09:14:04;;;;;;;1.30;1.17;;;;;;;;;;5006926;28;20052;-80
2023/11/28 09:16:32;;;;;;;0.93;0.82;;;;;;;;;;4992579;28;20058;-80
2023/11/28 09:18:59;;;;;;;1.23;1.13;;;;;;;;;;4968514;28;20046;-80
2023/11/28 09:21:27;;;;;;;1.20;1.10;;;;;;;;;;4964602;28;20054;-80
2023/11/28 09:23:55;;;;;;;1.08;0.98;;;;;;;;;;4966151;28;20496;-80
2023/11/28 09:26:26;;;;;;;1.15;1.05;;;;;;;;;;4976994;28;20051;-80
2023/11/28 09:28:53;;;;;;;1.40;1.30;;;;;;;;;;4969946;28;20497;-80
2023/11/28 09:31:26;;;;;;;2.08;1.05;;;;;;;;;;4958482;28;20058;-80
2023/11/28 09:33:54;;;;;;;1.20;1.10;;;;;;;;;;4951746;28;20050;-80
2023/11/28 09:36:21;;;;;;;1.80;1.33;;;;;;;;;;4988834;28;20058;-80
2023/11/28 09:38:51;;;;;;;1.08;0.95;;;;;;;;;;4959479;28;20069;-80
2023/11/28 09:41:24;;;;;;;1.88;1.55;;;;;;;;;;4970891;28;20061;-80
2023/11/28 09:43:53;;;;;;;1.48;1.38;;;;;;;;;;4976189;28;20047;-80
2023/11/28 09:46:23;;;;;;;2.08;1.80;;;;;;;;;;4958200;28;20141;-80
2023/11/28 09:48:54;;;;;;;1.45;1.35;;;;;;;;;;4972175;28;20058;-80
2023/11/28 09:51:21;;;;;;;2.42;1.63;;;;;;;;;;4978996;28;20055;-80
2023/11/28 09:53:57;;;;;;;2.20;1.48;;;;;;;;;;4973503;28;20055;-80
2023/11/28 09:56:29;;;;;;;1.45;1.35;;;;;;;;;;4971810;28;20421;-81
2023/11/28 09:59:00;;;;;;;2.08;1.90;;;;;;;;;;4964978;28;20062;-80
2023/11/28 10:01:29;;;;;;;1.98;1.65;;;;;;;;;;4956522;28;20062;-80
2023/11/28 10:04:00;;;;;;;2.08;1.60;;;;;;;;;;4969293;28;20051;-80
2023/11/28 10:06:29;;;;;;;1.27;1.17;;;;;;;;;;4986979;28;20051;-80
2023/11/28 10:09:00;;;;;;;2.00;1.52;;;;;;;;;;4957532;28;20047;-80
2023/11/28 10:11:32;;;;;;;1.65;1.50;;;;;;;;;;4990213;28;20047;-80
2023/11/28 10:14:01;;;;;;;1.55;1.45;;;;;;;;;;4975899;28;20061;-80
2023/11/28 10:16:41;;;;;;;2.05;1.83;;;;;;;;;;4973634;28;20046;-80
2023/11/28 10:19:11;;;;;;;2.03;1.73;;;;;;;;;;4977064;28;20169;-80
2023/11/28 10:21:39;;;;;;;1.67;1.58;;;;;;;;;;4970495;28;20048;-80
2023/11/28 10:24:09;;;;;;;1.85;1.58;;;;;;;;;;4992833;28;20058;-80
2023/11/28 10:26:38;;;;;;;1.40;1.30;;;;;;;;;;4968320;28;20057;-80
2023/11/28 10:29:06;;;;;;;1.85;1.23;;;;;;;;;;5026604;23;20059;-80
2023/11/28 10:31:37;;;;;;;1.52;1.42;;;;;;;;;;5061982;28;20036;-80
2023/11/28 10:34:08;;;;;;;1.40;1.30;;;;;;;;;;5031976;28;20053;-81
2023/11/28 10:36:40;;;;;;;1.52;1.00;;;;;;;;;;5047139;28;20526;-80
2023/11/28 10:39:09;;;;;;;2.28;1.70;;;;;;;;;;5031296;28;20056;-80
2023/11/28 10:41:41;;;;;;;3.83;1.55;;;;;;;;;;5044572;28;20052;-80
2023/11/28 10:44:08;;;;;;;2.45;1.48;;;;;;;;;;5024783;28;20045;-80
2023/11/28 10:46:39;;;;;;;1.40;1.30;;;;;;;;;;5060943;28;20054;-80
2023/11/28 10:49:09;;;;;;;1.65;1.55;;;;;;;;;;5044331;28;20041;-80
2023/11/28 10:51:36;;;;;;;1.33;1.23;;;;;;;;;;5048777;28;20053;-80
2023/11/28 10:54:05;;;;;;;1.38;0.95;;;;;;;;;;5047732;28;20407;-80
2023/11/28 10:56:46;;;;;;;1.27;1.17;;;;;;;;;;5040799;28;20049;-80
2023/11/28 10:59:22;;;;;;;1.45;1.30;;;;;;;;;;5053265;28;20036;-80
2023/11/28 11:01:50;;;;;;;1.17;1.00;;;;;;;;;;5053925;28;20411;-80
2023/11/28 11:04:20;;;;;;;1.23;1.10;;;;;;;;;;5061261;28;20059;-80
2023/11/28 11:06:49;;;;;;;1.35;1.20;;;;;;;;;;5033375;28;20048;-80
2023/11/28 11:09:19;;;;;;;1.35;1.25;;;;;;;;;;5063614;28;20029;-80
2023/11/28 11:11:48;;;;;;;3.38;2.25;;;;;;;;;;5063490;28;20049;-80
2023/11/28 11:14:25;;;;;;;2.55;1.38;;;;;;;;;;5027646;28;20056;-80
2023/11/28 11:16:58;;;;;;;1.40;1.20;;;;;;;;;;5030845;28;20451;-80
2023/11/28 11:19:26;;;;;;;1.60;1.13;;;;;;;;;;5026784;28;20056;-80
2023/11/28 11:21:58;;;;;;;1.77;1.48;;;;;;;;;;5044088;28;20052;-80
2023/11/28 11:24:26;;;;;;;2.15;1.02;;;;;;;;;;5028673;28;20411;-81
2023/11/28 11:26:55;;;;;;;2.83;1.20;;;;;;;;;;5037866;28;20048;-80
2023/11/28 11:29:40;;;;;;;1.98;1.55;;;;;;;;;;5024715;28;20051;-80
2023/11/28 11:32:13;;;;;;;1.88;1.40;;;;;;;;;;5029708;28;20446;-80
2023/11/28 11:34:44;;;;;;;2.00;1.52;;;;;;;;;;5042348;28;20064;-80
2023/11/28 11:37:13;;;;;;;2.65;1.65;;;;;;;;;;5035740;28;20037;-80
2023/11/28 11:39:42;;;;;;;1.63;1.42;;;;;;;;;;5043053;28;20036;-80
2023/11/28 11:42:14;;;;;;;1.65;1.55;;;;;;;;;;5025132;28;20045;-80
2023/11/28 11:44:46;;;;;;;1.85;1.52;;;;;;;;;;5062756;28;20445;-80
2023/11/28 11:47:17;;;;;;;2.05;1.80;;;;;;;;;;5074878;28;20056;-80
2023/11/28 11:49:48;;;;;;;1.70;1.60;;;;;;;;;;5041180;28;20057;-80
2023/11/28 11:52:16;;;;;;;2.00;1.73;;;;;;;;;;5041565;28;20053;-80
2023/11/28 11:54:45;;;;;;;3.72;2.97;;;;;;;;;;5046149;28;20055;-79
2023/11/28 11:57:14;;;;;;;2.20;2.00;;;;;;;;;;5026475;28;20056;-80
2023/11/28 11:59:42;;;;;;;2.60;1.80;;;;;;;;;;5035221;28;20053;-80
2023/11/28 12:02:10;;;;;;;2.50;1.85;;;;;;;;;;5042956;28;20037;-80
2023/11/28 12:04:41;;;;;;;2.33;1.83;;;;;;;;;;5043161;28;20402;-80
2023/11/28 12:07:12;;;;;;;2.70;2.28;;;;;;;;;;5047208;28;20055;-80
2023/11/28 12:09:40;;;;;;;2.25;2.05;;;;;;;;;;5040377;28;20057;-80
2023/11/28 12:12:12;;;;;;;1.80;1.60;;;;;;;;;;5041793;28;20048;-80
2023/11/28 12:14:43;;;;;;;3.63;2.22;;;;;;;;;;5063450;28;20044;-80
2023/11/28 12:17:12;;;;;;;2.30;1.67;;;;;;;;;;5026967;28;20056;-80
2023/11/28 12:19:41;;;;;;;2.33;1.92;;;;;;;;;;5064189;28;20044;-80
2023/11/28 12:22:13;;;;;;;2.72;2.47;;;;;;;;;;5054354;28;20048;-80
2023/11/28 12:24:40;;;;;;;2.53;2.33;;;;;;;;;;5039580;28;20057;-80
2023/11/28 12:27:10;;;;;;;1.92;1.73;;;;;;;;;;5046010;28;20055;-80
2023/11/28 12:29:39;;;;;;;2.15;1.92;;;;;;;;;;5025350;28;20324;-80
2023/11/28 12:32:08;;;;;;;2.40;1.88;;;;;;;;;;5041452;28;20049;-80
2023/11/28 12:34:39;;;;;;;2.47;2.28;;;;;;;;;;5041551;28;20051;-80
2023/11/28 12:37:08;;;;;;;2.90;2.20;;;;;;;;;;5047108;28;20052;-80
2023/11/28 12:39:35;;;;;;;2.45;2.03;;;;;;;;;;5048102;28;20064;-80
2023/11/28 12:42:05;;;;;;;2.72;2.53;;;;;;;;;;5052518;28;20052;-80
2023/11/28 12:44:36;;;;;;;2.58;2.28;;;;;;;;;;5058472;28;20060;-80
2023/11/28 12:47:04;;;;;;;2.78;2.58;;;;;;;;;;5046071;28;20044;-80
2023/11/28 12:49:40;;;;;;;4.55;3.00;;;;;;;;;;5022959;28;20053;-80
2023/11/28 12:52:08;;;;;;;3.92;2.95;;;;;;;;;;5034747;28;20802;-81
2023/11/28 12:54:35;;;;;;;2.63;2.42;;;;;;;;;;5060637;28;20059;-80
2023/11/28 12:57:03;;;;;;;3.28;2.97;;;;;;;;;;5044967;28;20045;-80
2023/11/28 12:59:30;;;;;;;3.55;2.97;;;;;;;;;;5045059;28;20051;-80
2023/11/28 13:01:58;;;;;;;3.53;3.17;;;;;;;;;;5068453;28;20048;-80
2023/11/28 13:04:25;;;;;;;3.13;2.83;;;;;;;;;;5035672;28;20044;-80
2023/11/28 13:06:54;;;;;;;3.03;2.72;;;;;;;;;;5043898;28;20040;-80
2023/11/28 13:09:22;;;;;;;4.72;3.85;;;;;;;;;;5044103;28;20040;-80
2023/11/28 13:11:54;;;;;;;4.72;2.92;;;;;;;;;;5064064;28;20067;-80
2023/11/28 13:14:40;;;;;;;3.38;3.05;;;;;;;;;;5072110;28;20045;-80
2023/11/28 13:17:10;;;;;;;3.78;2.70;;;;;;;;;;5035013;28;20045;-80
2023/11/28 13:19:40;;;;;;;4.18;3.42;;;;;;;;;;5060709;28;20040;-80
2023/11/28 13:22:10;;;;;;;4.63;4.05;;;;;;;;;;5031171;28;20052;-80
2023/11/28 13:24:37;;;;;;;3.15;2.85;;;;;;;;;;5026010;28;20048;-80
2023/11/28 13:27:05;;;;;;;4.13;3.17;;;;;;;;;;5060685;28;20044;-80
2023/11/28 13:29:33;;;;;;;4.50;3.58;;;;;;;;;;5024797;28;20255;-80
2023/11/28 13:32:03;;;;;;;3.72;2.97;;;;;;;;;;5039537;28;20040;-80
2023/11/28 13:34:32;;;;;;;3.75;3.13;;;;;;;;;;5044365;28;20052;-80
2023/11/28 13:37:05;;;;;;;3.90;3.08;;;;;;;;;;5046550;28;20405;-80
2023/11/28 13:39:36;;;;;;;3.20;2.90;;;;;;;;;;5021021;28;20063;-80
2023/11/28 13:42:04;;;;;;;3.03;2.72;;;;;;;;;;5053829;28;20056;-80
2023/11/28 13:44:34;;;;;;;4.65;3.55;;;;;;;;;;5052929;28;20036;-81
2023/11/28 13:47:05;;;;;;;3.92;3.50;;;;;;;;;;5047540;28;20049;-80
2023/11/28 13:49:32;;;;;;;4.47;3.60;;;;;;;;;;5036018;28;20041;-81
2023/11/28 13:52:00;;;;;;;4.20;3.80;;;;;;;;;;5040743;28;20045;-80
2023/11/28 13:54:28;;;;;;;3.85;3.47;;;;;;;;;;5029226;28;20064;-80
2023/11/28 13:56:57;;;;;;;3.67;3.17;;;;;;;;;;5039989;28;20045;-80
2023/11/28 13:59:30;;;;;;;5.32;3.50;;;;;;;;;;5052784;28;20041;-80
2023/11/28 14:01:57;;;;;;;3.63;3.25;;;;;;;;;;5026664;28;20052;-80
2023/11/28 14:04:26;;;;;;;4.80;3.10;;;;;;;;;;5055567;28;20053;-80
2023/11/28 14:06:55;;;;;;;4.28;3.20;;;;;;;;;;5045650;28;20041;-80
2023/11/28 14:09:23;;;;;;;3.78;3.38;;;;;;;;;;5062976;28;20511;-79
2023/11/28 14:11:50;;;;;;;5.57;4.05;;;;;;;;;;5040409;28;20508;-80
2023/11/28 14:14:21;;;;;;;4.20;3.65;;;;;;;;;;5028423;28;20065;-81
2023/11/28 14:16:49;;;;;;;3.70;3.40;;;;;;;;;;5048920;28;20507;-80
2023/11/28 14:19:16;;;;;;;4.32;3.65;;;;;;;;;;5032970;28;20052;-80
2023/11/28 14:21:46;;;;;;;3.35;3.10;;;;;;;;;;5037856;28;20056;-81
2023/11/28 14:24:13;;;;;;;3.80;3.38;;;;;;;;;;5033403;28;20049;-80
2023/11/28 14:26:43;;;;;;;4.28;3.42;;;;;;;;;;5054541;28;20055;-80
2023/11/28 14:29:10;;;;;;;4.35;3.50;;;;;;;;;;5029739;28;20407;-79
2023/11/28 14:31:39;;;;;;;5.88;4.63;;;;;;;;;;5040804;28;20068;-79
2023/11/28 14:34:09;;;;;;;4.70;3.75;;;;;;;;;;5049275;28;20044;-79
2023/11/28 14:36:36;;;;;;;4.43;3.83;;;;;;;;;;5053407;28;20041;-80
2023/11/28 14:39:08;;;;;;;3.50;3.08;;;;;;;;;;5069940;28;20033;-80
2023/11/28 14:41:36;;;;;;;4.53;4.05;;;;;;;;;;5062100;28;20056;-80
2023/11/28 14:44:08;;;;;;;4.15;3.75;;;;;;;;;;5053216;28;20036;-80
2023/11/28 14:46:40;;;;;;;7.65;4.30;;;;;;;;;;5052617;28;20055;-80
2023/11/28 14:49:07;;;;;;;4.70;4.28;;;;;;;;;;5065704;28;20044;-80
2023/11/28 14:51:36;;;;;;;6.03;4.03;;;;;;;;;;5037666;28;20053;-81
2023/11/28 14:54:04;;;;;;;3.97;3.35;;;;;;;;;;5043647;28;20045;-81